createdAt,value
2019-05-12T00:00:55.067Z,0.00
2019-05-12T00:01:55.024Z,0.00
2019-05-12T00:02:55.015Z,0.00
2019-05-12T00:03:54.962Z,0.00
2019-05-12T00:04:54.919Z,0.00
2019-05-12T00:05:54.888Z,0.00
2019-05-12T00:06:54.851Z,0.00
2019-05-12T00:07:54.819Z,0.00
2019-05-12T00:08:54.782Z,0.00
2019-05-12T00:09:54.743Z,0.00
2019-05-12T00:10:54.709Z,0.00
2019-05-12T00:11:54.670Z,0.00
2019-05-12T00:12:54.635Z,0.00
2019-05-12T00:13:54.603Z,0.00
2019-05-12T00:14:54.574Z,0.00
2019-05-12T00:15:54.526Z,0.00
2019-05-12T00:16:54.498Z,0.00
2019-05-12T00:17:54.456Z,0.00
2019-05-12T00:18:54.428Z,0.00
2019-05-12T00:19:54.385Z,0.00
2019-05-12T00:20:54.353Z,0.00
2019-05-12T00:21:54.315Z,0.00
2019-05-12T00:22:54.303Z,0.00
2019-05-12T00:23:54.236Z,0.00
2019-05-12T00:24:54.209Z,0.00
2019-05-12T00:25:54.168Z,0.00
2019-05-12T00:26:54.125Z,0.00
2019-05-12T00:27:54.101Z,0.00
2019-05-12T00:28:54.065Z,0.00
2019-05-12T00:29:54.027Z,0.00
2019-05-12T00:30:53.995Z,0.00
2019-05-12T00:31:53.957Z,0.00
2019-05-12T00:32:53.912Z,0.00
2019-05-12T00:33:53.884Z,0.00
2019-05-12T00:34:53.857Z,0.00
2019-05-12T00:35:53.813Z,0.00
2019-05-12T00:36:53.790Z,0.00
2019-05-12T00:37:53.740Z,0.00
2019-05-12T00:38:53.699Z,0.00
2019-05-12T00:39:53.666Z,0.00
2019-05-12T00:40:53.633Z,0.00
2019-05-12T00:41:53.594Z,0.00
2019-05-12T00:42:53.560Z,0.00
2019-05-12T00:43:53.517Z,0.00
2019-05-12T00:44:53.492Z,0.00
2019-05-12T00:45:53.446Z,0.00
2019-05-12T00:46:53.408Z,0.00
2019-05-12T00:47:53.373Z,0.00
2019-05-12T00:48:53.332Z,0.00
2019-05-12T00:49:53.302Z,0.00
2019-05-12T00:50:53.265Z,0.00
2019-05-12T00:51:53.235Z,0.00
2019-05-12T00:52:53.199Z,0.00
2019-05-12T00:53:53.162Z,0.00
2019-05-12T00:54:53.133Z,0.00
2019-05-12T00:55:53.080Z,0.00
2019-05-12T00:56:53.054Z,0.00
2019-05-12T00:57:53.040Z,0.00
2019-05-12T00:58:52.975Z,0.00
2019-05-12T00:59:52.953Z,0.00
2019-05-12T01:00:52.901Z,0.00
2019-05-12T01:01:52.873Z,0.00
2019-05-12T01:02:52.835Z,0.00
2019-05-12T01:03:52.803Z,0.00
2019-05-12T01:04:52.768Z,0.00
2019-05-12T01:05:52.731Z,0.00
2019-05-12T01:06:52.719Z,0.00
2019-05-12T01:07:52.661Z,0.00
2019-05-12T01:08:52.621Z,0.00
2019-05-12T01:09:52.572Z,0.00
2019-05-12T01:10:52.546Z,0.00
2019-05-12T01:11:52.510Z,0.00
2019-05-12T01:12:52.471Z,0.00
2019-05-12T01:13:52.447Z,0.00
2019-05-12T01:14:52.402Z,0.00
2019-05-12T01:15:52.365Z,0.00
2019-05-12T01:16:52.327Z,0.00
2019-05-12T01:17:52.291Z,0.00
2019-05-12T01:18:52.262Z,0.00
2019-05-12T01:19:52.226Z,0.00
2019-05-12T01:20:52.186Z,0.00
2019-05-12T01:21:52.149Z,0.00
2019-05-12T01:22:52.121Z,0.00
2019-05-12T01:23:57.131Z,0.00
2019-05-12T01:24:52.034Z,0.00
2019-05-12T01:25:52.007Z,0.00
2019-05-12T01:26:51.973Z,0.00
2019-05-12T01:27:51.929Z,0.00
2019-05-12T01:28:51.896Z,0.00
2019-05-12T01:29:51.853Z,0.00
2019-05-12T01:30:51.820Z,0.00
2019-05-12T01:31:51.799Z,0.00
2019-05-12T01:32:51.754Z,0.00
2019-05-12T01:33:51.714Z,0.00
2019-05-12T01:34:51.683Z,0.00
2019-05-12T01:35:51.634Z,0.00
2019-05-12T01:36:51.610Z,0.00
2019-05-12T01:37:51.569Z,0.00
2019-05-12T01:38:51.540Z,0.00
2019-05-12T01:39:51.515Z,0.00
2019-05-12T01:40:51.468Z,0.00
2019-05-12T01:41:51.424Z,0.00
2019-05-12T01:42:51.391Z,0.00
2019-05-12T01:43:51.359Z,0.00
2019-05-12T01:44:51.321Z,0.00
2019-05-12T01:45:51.277Z,0.00
2019-05-12T01:46:51.238Z,0.00
2019-05-12T01:47:51.204Z,0.00
2019-05-12T01:48:51.169Z,0.00
2019-05-12T01:49:51.138Z,0.00
2019-05-12T01:50:51.086Z,0.00
2019-05-12T01:51:51.061Z,0.00
2019-05-12T01:52:51.024Z,0.00
2019-05-12T01:53:50.984Z,0.00
2019-05-12T01:54:50.954Z,0.00
2019-05-12T01:55:50.909Z,0.00
2019-05-12T01:56:50.874Z,0.00
2019-05-12T01:57:50.840Z,0.00
2019-05-12T01:58:50.810Z,0.00
2019-05-12T01:59:50.771Z,0.00
2019-05-12T02:00:50.737Z,0.00
2019-05-12T02:01:50.696Z,0.00
2019-05-12T02:02:50.679Z,0.00
2019-05-12T02:03:50.624Z,0.00
2019-05-12T02:04:50.586Z,0.00
2019-05-12T02:05:50.545Z,0.00
2019-05-12T02:06:50.510Z,0.00
2019-05-12T02:07:50.470Z,0.00
2019-05-12T02:08:50.441Z,0.00
2019-05-12T02:09:50.411Z,0.00
2019-05-12T02:10:50.376Z,0.00
2019-05-12T02:11:50.321Z,0.00
2019-05-12T02:12:50.298Z,0.00
2019-05-12T02:13:50.268Z,0.00
2019-05-12T02:14:50.221Z,0.00
2019-05-12T02:15:50.185Z,0.00
2019-05-12T02:16:50.151Z,0.00
2019-05-12T02:17:50.111Z,0.00
2019-05-12T02:18:50.070Z,0.00
2019-05-12T02:19:50.037Z,0.00
2019-05-12T02:20:50.010Z,0.00
2019-05-12T02:21:49.970Z,0.00
2019-05-12T02:22:49.930Z,0.00
2019-05-12T02:23:49.903Z,0.00
2019-05-12T02:24:49.862Z,0.00
2019-05-12T02:25:49.821Z,0.00
2019-05-12T02:26:49.791Z,0.00
2019-05-12T02:27:49.752Z,0.00
2019-05-12T02:28:49.711Z,0.00
2019-05-12T02:29:49.675Z,0.00
2019-05-12T02:30:50.461Z,0.00
2019-05-12T02:31:50.256Z,0.00
2019-05-12T02:32:57.488Z,0.00
2019-05-12T02:33:49.532Z,0.00
2019-05-12T02:34:49.508Z,0.00
2019-05-12T02:35:49.467Z,0.00
2019-05-12T02:36:49.428Z,0.00
2019-05-12T02:37:49.394Z,0.00
2019-05-12T02:38:49.356Z,0.00
2019-05-12T02:39:49.311Z,0.00
2019-05-12T02:40:49.276Z,0.00
2019-05-12T02:41:49.242Z,0.00
2019-05-12T02:42:49.197Z,0.00
2019-05-12T02:43:49.169Z,0.00
2019-05-12T02:44:49.125Z,0.00
2019-05-12T02:45:49.104Z,0.00
2019-05-12T02:46:49.071Z,0.00
2019-05-12T02:47:49.024Z,0.00
2019-05-12T02:48:48.985Z,0.00
2019-05-12T02:49:48.979Z,0.00
2019-05-12T02:50:48.916Z,0.00
2019-05-12T02:51:48.873Z,0.00
2019-05-12T02:52:48.843Z,0.00
2019-05-12T02:53:48.797Z,0.00
2019-05-12T02:54:55.520Z,0.00
2019-05-12T02:55:48.734Z,0.00
2019-05-12T02:56:48.689Z,0.00
2019-05-12T02:57:48.659Z,0.00
2019-05-12T02:58:48.650Z,0.00
2019-05-12T02:59:48.585Z,0.00
2019-05-12T03:00:48.555Z,0.00
2019-05-12T03:01:48.511Z,0.00
2019-05-12T03:02:48.480Z,0.00
2019-05-12T03:03:48.432Z,0.00
2019-05-12T03:04:48.402Z,0.00
2019-05-12T03:05:48.369Z,0.00
2019-05-12T03:06:48.335Z,0.00
2019-05-12T03:07:48.291Z,0.00
2019-05-12T03:08:48.264Z,0.00
2019-05-12T03:09:48.220Z,0.00
2019-05-12T03:10:48.217Z,0.00
2019-05-12T03:11:48.141Z,0.00
2019-05-12T03:12:48.115Z,0.00
2019-05-12T03:13:48.078Z,0.00
2019-05-12T03:14:48.053Z,0.00
2019-05-12T03:15:48.019Z,0.00
2019-05-12T03:16:48.005Z,0.00
2019-05-12T03:17:47.932Z,0.00
2019-05-12T03:18:47.892Z,0.00
2019-05-12T03:19:47.862Z,0.00
2019-05-12T03:20:47.826Z,0.00
2019-05-12T03:21:47.797Z,0.00
2019-05-12T03:22:47.755Z,0.00
2019-05-12T03:23:47.733Z,0.00
2019-05-12T03:25:06.422Z,0.00
2019-05-12T03:25:47.646Z,0.00
2019-05-12T03:26:47.607Z,0.00
2019-05-12T03:27:47.576Z,0.00
2019-05-12T03:28:47.538Z,4.00
2019-05-12T03:29:47.501Z,4.00
2019-05-12T03:30:49.200Z,0.00
2019-05-12T03:31:48.981Z,4.00
2019-05-12T03:32:48.019Z,4.00
2019-05-12T03:33:52.902Z,4.00
2019-05-12T03:34:57.953Z,4.00
2019-05-12T03:36:53.822Z,4.00
2019-05-12T03:37:54.656Z,4.00
2019-05-12T03:38:54.952Z,4.00
2019-05-12T03:39:54.005Z,8.00
2019-05-12T03:40:54.915Z,8.00
2019-05-12T03:41:54.530Z,12.00
2019-05-12T03:42:54.774Z,8.00
2019-05-12T03:43:54.823Z,8.00
2019-05-12T03:44:54.387Z,12.00
2019-05-12T03:45:51.377Z,16.00
2019-05-12T03:46:54.199Z,12.00
2019-05-12T03:47:51.307Z,16.00
2019-05-12T03:48:51.262Z,16.00
2019-05-12T03:49:54.239Z,16.00
2019-05-12T03:50:53.999Z,20.00
2019-05-12T03:51:54.212Z,20.00
2019-05-12T03:52:51.124Z,24.00
2019-05-12T03:53:51.092Z,24.00
2019-05-12T03:54:51.048Z,28.00
2019-05-12T03:55:51.008Z,28.00
2019-05-12T03:56:50.979Z,28.00
2019-05-12T03:57:50.939Z,32.00
2019-05-12T03:58:53.927Z,36.00
2019-05-12T03:59:53.699Z,36.00
2019-05-12T04:00:50.843Z,40.00
2019-05-12T04:01:50.798Z,44.00
2019-05-12T04:02:50.758Z,44.00
2019-05-12T04:03:50.720Z,44.00
2019-05-12T04:04:50.684Z,52.00
2019-05-12T04:05:50.667Z,56.00
2019-05-12T04:06:50.618Z,56.00
2019-05-12T04:07:50.582Z,60.00
2019-05-12T04:08:50.546Z,60.00
2019-05-12T04:09:50.509Z,60.00
2019-05-12T04:10:50.467Z,64.00
2019-05-12T04:11:50.429Z,64.00
2019-05-12T04:12:50.416Z,68.00
2019-05-12T04:13:50.374Z,68.00
2019-05-12T04:14:50.329Z,72.00
2019-05-12T04:15:50.296Z,72.00
2019-05-12T04:16:50.257Z,76.00
2019-05-12T04:17:50.218Z,80.00
2019-05-12T04:18:50.188Z,84.00
2019-05-12T04:19:50.153Z,88.00
2019-05-12T04:20:50.107Z,92.00
2019-05-12T04:21:50.078Z,92.00
2019-05-12T04:22:50.050Z,92.00
2019-05-12T04:23:50.005Z,100.00
2019-05-12T04:24:49.969Z,108.00
2019-05-12T04:25:54.628Z,112.00
2019-05-12T04:26:49.894Z,116.00
2019-05-12T04:27:49.852Z,128.00
2019-05-12T04:28:49.815Z,132.00
2019-05-12T04:29:49.785Z,132.00
2019-05-12T04:30:49.749Z,132.00
2019-05-12T04:31:49.704Z,140.00
2019-05-12T04:32:49.676Z,148.00
2019-05-12T04:33:49.644Z,156.00
2019-05-12T04:34:49.593Z,160.00
2019-05-12T04:35:49.564Z,160.00
2019-05-12T04:36:49.536Z,168.00
2019-05-12T04:37:49.497Z,184.00
2019-05-12T04:38:49.457Z,196.00
2019-05-12T04:39:49.416Z,204.00
2019-05-12T04:40:49.383Z,216.00
2019-05-12T04:41:49.348Z,224.00
2019-05-12T04:42:49.325Z,224.00
2019-05-12T04:43:49.273Z,232.00
2019-05-12T04:44:49.243Z,244.00
2019-05-12T04:45:49.203Z,244.00
2019-05-12T04:46:49.174Z,244.00
2019-05-12T04:47:49.132Z,244.00
2019-05-12T04:48:49.085Z,252.00
2019-05-12T04:49:49.053Z,260.00
2019-05-12T04:50:49.020Z,268.00
2019-05-12T04:51:48.991Z,280.00
2019-05-12T04:52:48.956Z,296.00
2019-05-12T04:53:48.925Z,320.00
2019-05-12T04:54:48.875Z,336.00
2019-05-12T04:56:05.951Z,328.00
2019-05-12T04:56:48.802Z,324.00
2019-05-12T04:57:48.775Z,320.00
2019-05-12T04:58:48.740Z,320.00
2019-05-12T04:59:48.701Z,316.00
2019-05-12T05:00:48.661Z,316.00
2019-05-12T05:01:48.622Z,336.00
2019-05-12T05:02:48.593Z,352.00
2019-05-12T05:03:48.556Z,368.00
2019-05-12T05:04:48.528Z,396.00
2019-05-12T05:05:48.478Z,416.00
2019-05-12T05:06:48.445Z,436.00
2019-05-12T05:07:48.406Z,452.00
2019-05-12T05:08:48.379Z,464.00
2019-05-12T05:09:48.336Z,488.00
2019-05-12T05:10:48.303Z,512.00
2019-05-12T05:11:48.273Z,512.00
2019-05-12T05:12:48.227Z,520.00
2019-05-12T05:13:48.210Z,504.00
2019-05-12T05:14:48.173Z,476.00
2019-05-12T05:15:48.115Z,452.00
2019-05-12T05:16:48.096Z,444.00
2019-05-12T05:17:48.056Z,436.00
2019-05-12T05:18:48.010Z,444.00
2019-05-12T05:19:47.981Z,456.00
2019-05-12T05:20:47.941Z,484.00
2019-05-12T05:21:47.916Z,512.00
2019-05-12T05:22:47.871Z,536.00
2019-05-12T05:23:47.848Z,540.00
2019-05-12T05:24:47.796Z,524.00
2019-05-12T05:25:47.766Z,516.00
2019-05-12T05:26:47.737Z,504.00
2019-05-12T05:27:47.686Z,500.00
2019-05-12T05:28:47.656Z,512.00
2019-05-12T05:29:47.623Z,524.00
2019-05-12T05:30:47.581Z,532.00
2019-05-12T05:31:47.548Z,548.00
2019-05-12T05:32:47.516Z,576.00
2019-05-12T05:33:47.474Z,576.00
2019-05-12T05:34:53.717Z,580.00
2019-05-12T05:35:47.402Z,588.00
2019-05-12T05:36:51.103Z,608.00
2019-05-12T05:37:47.336Z,620.00
2019-05-12T05:38:51.063Z,640.00
2019-05-12T05:39:49.654Z,664.00
2019-05-12T05:40:47.227Z,668.00
2019-05-12T05:41:50.919Z,640.00
2019-05-12T05:42:47.158Z,620.00
2019-05-12T05:43:48.579Z,596.00
2019-05-12T05:44:47.100Z,580.00
2019-05-12T05:45:47.064Z,564.00
2019-05-12T05:46:50.059Z,560.00
2019-05-12T05:47:48.917Z,568.00
2019-05-12T05:48:46.946Z,580.00
2019-05-12T05:49:46.903Z,612.00
2019-05-12T05:50:46.873Z,644.00
2019-05-12T05:51:54.160Z,676.00
2019-05-12T05:52:46.803Z,704.00
2019-05-12T05:53:49.939Z,700.00
2019-05-12T05:54:46.727Z,704.00
2019-05-12T05:55:50.296Z,700.00
2019-05-12T05:56:57.403Z,720.00
2019-05-12T05:57:46.605Z,736.00
2019-05-12T05:58:51.657Z,748.00
2019-05-12T05:59:46.539Z,752.00
2019-05-12T06:00:46.515Z,764.00
2019-05-12T06:01:51.708Z,768.00
2019-05-12T06:02:46.440Z,776.00
2019-05-12T06:03:46.412Z,784.00
2019-05-12T06:04:49.839Z,804.00
2019-05-12T06:05:46.328Z,848.00
2019-05-12T06:06:50.775Z,872.00
2019-05-12T06:07:46.261Z,884.00
2019-05-12T06:08:46.226Z,896.00
2019-05-12T06:09:46.199Z,908.00
2019-05-12T06:10:46.166Z,916.00
2019-05-12T06:11:46.129Z,900.00
2019-05-12T06:12:50.664Z,872.00
2019-05-12T06:13:46.049Z,848.00
2019-05-12T06:14:54.149Z,824.00
2019-05-12T06:15:45.991Z,804.00
2019-05-12T06:16:45.951Z,792.00
2019-05-12T06:17:45.917Z,792.00
2019-05-12T06:18:45.871Z,800.00
2019-05-12T06:19:45.837Z,804.00
2019-05-12T06:20:45.805Z,812.00
2019-05-12T06:21:45.783Z,832.00
2019-05-12T06:22:48.546Z,848.00
2019-05-12T06:23:45.702Z,868.00
2019-05-12T06:24:49.091Z,884.00
2019-05-12T06:25:51.158Z,900.00
2019-05-12T06:26:56.708Z,928.00
2019-05-12T06:27:45.566Z,980.00
2019-05-12T06:28:45.531Z,1040.00
2019-05-12T06:29:45.487Z,1088.00
2019-05-12T06:30:49.467Z,1104.00
2019-05-12T06:31:45.428Z,1096.00
2019-05-12T06:32:50.128Z,1100.00
2019-05-12T06:33:45.345Z,1144.00
2019-05-12T06:34:45.308Z,1208.00
2019-05-12T06:35:45.632Z,1236.00
2019-05-12T06:36:45.235Z,1248.00
2019-05-12T06:37:57.362Z,1296.00
2019-05-12T06:38:45.167Z,1332.00
2019-05-12T06:39:45.135Z,1388.00
2019-05-12T06:40:45.604Z,1392.00
2019-05-12T06:41:45.068Z,1400.00
2019-05-12T06:42:48.482Z,1388.00
2019-05-12T06:43:45.479Z,1424.00
2019-05-12T06:44:48.926Z,1428.00
2019-05-12T06:45:45.697Z,1392.00
2019-05-12T06:46:44.892Z,1412.00
2019-05-12T06:47:49.493Z,1432.00
2019-05-12T06:48:45.596Z,1436.00
2019-05-12T06:49:48.793Z,1460.00
2019-05-12T06:50:44.755Z,1420.00
2019-05-12T06:51:44.719Z,1328.00
2019-05-12T06:52:48.978Z,1240.00
2019-05-12T06:53:44.654Z,1216.00
2019-05-12T06:54:51.297Z,1208.00
2019-05-12T06:55:44.575Z,1252.00
2019-05-12T06:56:44.541Z,1312.00
2019-05-12T06:57:48.131Z,1392.00
2019-05-12T06:58:44.476Z,1460.00
2019-05-12T06:59:50.982Z,1468.00
2019-05-12T07:00:44.403Z,1492.00
2019-05-12T07:01:45.115Z,1504.00
2019-05-12T07:02:49.973Z,1556.00
2019-05-12T07:03:44.292Z,1640.00
2019-05-12T07:04:47.473Z,1684.00
2019-05-12T07:05:45.286Z,1712.00
2019-05-12T07:06:44.363Z,1760.00
2019-05-12T07:07:46.057Z,1760.00
2019-05-12T07:08:44.123Z,1804.00
2019-05-12T07:09:51.979Z,1784.00
2019-05-12T07:10:46.910Z,1728.00
2019-05-12T07:11:52.870Z,1696.00
2019-05-12T07:12:57.590Z,1720.00
2019-05-12T07:13:43.949Z,1768.00
2019-05-12T07:14:43.915Z,1720.00
2019-05-12T07:15:44.072Z,1652.00
2019-05-12T07:16:44.200Z,1652.00
2019-05-12T07:17:49.402Z,1640.00
2019-05-12T07:18:43.836Z,1568.00
2019-05-12T07:19:44.041Z,1584.00
2019-05-12T07:20:43.723Z,1640.00
2019-05-12T07:21:44.012Z,1648.00
2019-05-12T07:22:48.091Z,1588.00
2019-05-12T07:23:44.497Z,1588.00
2019-05-12T07:24:50.142Z,1680.00
2019-05-12T07:25:44.479Z,1708.00
2019-05-12T07:26:44.245Z,1788.00
2019-05-12T07:27:45.700Z,1728.00
2019-05-12T07:28:43.444Z,1676.00
2019-05-12T07:29:43.658Z,1544.00
2019-05-12T07:30:44.148Z,1492.00
2019-05-12T07:31:44.167Z,1524.00
2019-05-12T07:32:43.425Z,1708.00
2019-05-12T07:33:45.816Z,1880.00
2019-05-12T07:34:43.728Z,2028.00
2019-05-12T07:35:44.422Z,2032.00
2019-05-12T07:36:44.305Z,2004.00
2019-05-12T07:37:43.672Z,1952.00
2019-05-12T07:38:43.455Z,1848.00
2019-05-12T07:39:47.257Z,1876.00
2019-05-12T07:40:44.392Z,1872.00
2019-05-12T07:41:50.749Z,1836.00
2019-05-12T07:42:43.871Z,1880.00
2019-05-12T07:43:44.387Z,1820.00
2019-05-12T07:44:44.089Z,1892.00
2019-05-12T07:45:44.121Z,2056.00
2019-05-12T07:46:47.764Z,2164.00
2019-05-12T07:47:44.820Z,2176.00
2019-05-12T07:48:48.991Z,2048.00
2019-05-12T07:49:44.069Z,1988.00
2019-05-12T07:50:43.342Z,1996.00
2019-05-12T07:51:44.682Z,2028.00
2019-05-12T07:52:44.204Z,1984.00
2019-05-12T07:53:46.875Z,2024.00
2019-05-12T07:54:44.449Z,1984.00
2019-05-12T07:55:47.562Z,1904.00
2019-05-12T07:56:44.178Z,1788.00
2019-05-12T07:57:52.799Z,1744.00
2019-05-12T07:58:49.075Z,1668.00
2019-05-12T07:59:43.829Z,1664.00
2019-05-12T08:00:44.219Z,1680.00
2019-05-12T08:01:48.217Z,1852.00
2019-05-12T08:02:44.406Z,1892.00
2019-05-12T08:03:43.690Z,2020.00
2019-05-12T08:04:44.017Z,2060.00
2019-05-12T08:05:43.945Z,2264.00
2019-05-12T08:06:46.057Z,2180.00
2019-05-12T08:07:43.836Z,2260.00
2019-05-12T08:08:50.359Z,2252.00
2019-05-12T08:09:43.246Z,2104.00
2019-05-12T08:10:44.164Z,1888.00
2019-05-12T08:11:43.373Z,1948.00
2019-05-12T08:12:44.297Z,1984.00
2019-05-12T08:13:43.827Z,2188.00
2019-05-12T08:14:43.981Z,2076.00
2019-05-12T08:15:45.736Z,1996.00
2019-05-12T08:16:43.730Z,2080.00
2019-05-12T08:17:43.874Z,2360.00
2019-05-12T08:18:43.803Z,2496.00
2019-05-12T08:19:44.234Z,2532.00
2019-05-12T08:20:43.564Z,2656.00
2019-05-12T08:21:43.938Z,2556.00
2019-05-12T08:22:43.620Z,2504.00
2019-05-12T08:23:44.257Z,2436.00
2019-05-12T08:24:43.596Z,2368.00
2019-05-12T08:25:43.662Z,2284.00
2019-05-12T08:26:43.550Z,2232.00
2019-05-12T08:27:45.271Z,2244.00
2019-05-12T08:28:41.406Z,2332.00
2019-05-12T08:29:43.307Z,2336.00
2019-05-12T08:30:47.544Z,2292.00
2019-05-12T08:31:41.298Z,2084.00
2019-05-12T08:32:41.266Z,1864.00
2019-05-12T08:33:43.488Z,1716.00
2019-05-12T08:34:43.611Z,1568.00
2019-05-12T08:35:43.426Z,1472.00
2019-05-12T08:36:45.058Z,1416.00
2019-05-12T08:37:41.093Z,1380.00
2019-05-12T08:38:41.064Z,1404.00
2019-05-12T08:39:41.034Z,1448.00
2019-05-12T08:40:48.857Z,1424.00
2019-05-12T08:41:40.954Z,1412.00
2019-05-12T08:42:43.407Z,1416.00
2019-05-12T08:43:48.756Z,1440.00
2019-05-12T08:44:40.947Z,1468.00
2019-05-12T08:45:40.819Z,1452.00
2019-05-12T08:46:45.665Z,1468.00
2019-05-12T08:47:40.758Z,1572.00
2019-05-12T08:48:40.724Z,1784.00
2019-05-12T08:49:50.198Z,1896.00
2019-05-12T08:50:42.823Z,1936.00
2019-05-12T08:51:40.630Z,2184.00
2019-05-12T08:52:41.987Z,2220.00
2019-05-12T08:53:40.550Z,2180.00
2019-05-12T08:54:45.429Z,2144.00
2019-05-12T08:55:40.489Z,2032.00
2019-05-12T08:56:40.479Z,1976.00
2019-05-12T08:57:41.550Z,1896.00
2019-05-12T08:58:48.208Z,1840.00
2019-05-12T08:59:40.359Z,1960.00
2019-05-12T09:00:48.193Z,1944.00
2019-05-12T09:01:40.289Z,2008.00
2019-05-12T09:02:46.094Z,2016.00
2019-05-12T09:03:40.208Z,2100.00
2019-05-12T09:04:45.310Z,2488.00
2019-05-12T09:05:40.190Z,2672.00
2019-05-12T09:06:40.124Z,2496.00
2019-05-12T09:07:40.109Z,2380.00
2019-05-12T09:08:45.143Z,2480.00
2019-05-12T09:09:40.023Z,2476.00
2019-05-12T09:10:39.985Z,2440.00
2019-05-12T09:11:39.954Z,2572.00
2019-05-12T09:12:39.914Z,2740.00
2019-05-12T09:13:39.884Z,2768.00
2019-05-12T09:14:41.376Z,2772.00
2019-05-12T09:15:39.810Z,2740.00
2019-05-12T09:16:39.784Z,2696.00
2019-05-12T09:17:49.050Z,2644.00
2019-05-12T09:18:39.715Z,2676.00
2019-05-12T09:19:39.689Z,2740.00
2019-05-12T09:20:47.891Z,2584.00
2019-05-12T09:21:39.613Z,2568.00
2019-05-12T09:22:39.576Z,2980.00
2019-05-12T09:23:41.448Z,3160.00
2019-05-12T09:24:39.515Z,3312.00
2019-05-12T09:25:44.423Z,3272.00
2019-05-12T09:26:39.448Z,3128.00
2019-05-12T09:27:44.569Z,3116.00
2019-05-12T09:28:47.423Z,2872.00
2019-05-12T09:29:39.349Z,3212.00
2019-05-12T09:30:39.989Z,3132.00
2019-05-12T09:31:39.296Z,3240.00
2019-05-12T09:32:44.433Z,3240.00
2019-05-12T09:33:39.215Z,3236.00
2019-05-12T09:34:39.191Z,2496.00
2019-05-12T09:35:39.496Z,3148.00
2019-05-12T09:36:39.115Z,3336.00
2019-05-12T09:37:40.454Z,3152.00
2019-05-12T09:38:40.976Z,3068.00
2019-05-12T09:39:42.715Z,2828.00
2019-05-12T09:40:38.992Z,2744.00
2019-05-12T09:41:42.803Z,2944.00
2019-05-12T09:42:38.924Z,2980.00
2019-05-12T09:43:40.282Z,3080.00
2019-05-12T09:44:41.305Z,3084.00
2019-05-12T09:45:40.230Z,3088.00
2019-05-12T09:46:38.782Z,2884.00
2019-05-12T09:47:38.761Z,3096.00
2019-05-12T09:48:39.134Z,2896.00
2019-05-12T09:49:39.707Z,2964.00
2019-05-12T09:50:38.657Z,2968.00
2019-05-12T09:51:45.707Z,3096.00
2019-05-12T09:52:38.589Z,3296.00
2019-05-12T09:53:42.900Z,3224.00
2019-05-12T09:54:40.777Z,2776.00
2019-05-12T09:55:38.488Z,2852.00
2019-05-12T09:56:41.113Z,2764.00
2019-05-12T09:57:40.687Z,2548.00
2019-05-12T09:58:38.395Z,3000.00
2019-05-12T09:59:38.366Z,6528.00
2019-05-12T10:00:38.336Z,3192.00
2019-05-12T10:01:39.666Z,4444.00
2019-05-12T10:02:38.277Z,6972.00
2019-05-12T10:03:40.028Z,6736.00
2019-05-12T10:04:38.193Z,3232.00
2019-05-12T10:05:41.113Z,3332.00
2019-05-12T10:06:38.139Z,2904.00
2019-05-12T10:07:38.114Z,3608.00
2019-05-12T10:08:38.069Z,6756.00
2019-05-12T10:09:38.034Z,5616.00
2019-05-12T10:10:40.268Z,7164.00
2019-05-12T10:11:37.971Z,7212.00
2019-05-12T10:12:45.156Z,7460.00
2019-05-12T10:13:37.927Z,7264.00
2019-05-12T10:14:40.754Z,7164.00
2019-05-12T10:15:37.859Z,6952.00
2019-05-12T10:16:39.486Z,3756.00
2019-05-12T10:17:37.780Z,7124.00
2019-05-12T10:18:43.138Z,6944.00
2019-05-12T10:19:37.724Z,4056.00
2019-05-12T10:20:39.853Z,3040.00
2019-05-12T10:21:37.663Z,2924.00
2019-05-12T10:22:40.094Z,4696.00
2019-05-12T10:23:37.599Z,3160.00
2019-05-12T10:24:41.590Z,3976.00
2019-05-12T10:25:37.539Z,7684.00
2019-05-12T10:26:41.089Z,4280.00
2019-05-12T10:27:37.481Z,3120.00
2019-05-12T10:28:37.445Z,4308.00
2019-05-12T10:29:37.414Z,3384.00
2019-05-12T10:30:37.392Z,3232.00
2019-05-12T10:31:39.301Z,3964.00
2019-05-12T10:32:37.322Z,2880.00
2019-05-12T10:33:37.286Z,3100.00
2019-05-12T10:34:40.270Z,7464.00
2019-05-12T10:35:37.231Z,6868.00
2019-05-12T10:36:39.168Z,3128.00
2019-05-12T10:37:37.164Z,3476.00
2019-05-12T10:38:37.132Z,7340.00
2019-05-12T10:39:37.109Z,7176.00
2019-05-12T10:40:37.075Z,6940.00
2019-05-12T10:41:37.040Z,6724.00
2019-05-12T10:42:39.729Z,6736.00
2019-05-12T10:43:37.008Z,6740.00
2019-05-12T10:44:40.718Z,6660.00
2019-05-12T10:45:36.921Z,6584.00
2019-05-12T10:46:36.890Z,6560.00
2019-05-12T10:47:36.857Z,6508.00
2019-05-12T10:48:36.821Z,6600.00
2019-05-12T10:49:36.803Z,6744.00
2019-05-12T10:50:36.789Z,6660.00
2019-05-12T10:51:36.732Z,6596.00
2019-05-12T10:52:38.927Z,6600.00
2019-05-12T10:53:36.681Z,4400.00
2019-05-12T10:54:36.656Z,2996.00
2019-05-12T10:55:36.630Z,2868.00
2019-05-12T10:56:36.602Z,2736.00
2019-05-12T10:57:36.563Z,6844.00
2019-05-12T10:58:36.522Z,6696.00
2019-05-12T10:59:38.830Z,6624.00
2019-05-12T11:00:36.473Z,6824.00
2019-05-12T11:01:38.426Z,7108.00
2019-05-12T11:02:36.414Z,7260.00
2019-05-12T11:03:36.392Z,3300.00
2019-05-12T11:04:40.947Z,2956.00
2019-05-12T11:05:36.323Z,6936.00
2019-05-12T11:06:39.689Z,6780.00
2019-05-12T11:07:36.270Z,3912.00
2019-05-12T11:08:36.262Z,6180.00
2019-05-12T11:09:36.206Z,3416.00
2019-05-12T11:10:36.172Z,3084.00
2019-05-12T11:11:42.148Z,2668.00
2019-05-12T11:12:36.124Z,2428.00
2019-05-12T11:13:40.384Z,2316.00
2019-05-12T11:14:36.057Z,2420.00
2019-05-12T11:15:39.539Z,3524.00
2019-05-12T11:16:36.021Z,2540.00
2019-05-12T11:17:40.227Z,2484.00
2019-05-12T11:18:35.937Z,2676.00
2019-05-12T11:19:40.924Z,6164.00
2019-05-12T11:20:35.884Z,6596.00
2019-05-12T11:21:35.847Z,6240.00
2019-05-12T11:22:35.823Z,6188.00
2019-05-12T11:23:35.798Z,6164.00
2019-05-12T11:24:35.768Z,6104.00
2019-05-12T11:25:35.727Z,6520.00
2019-05-12T11:26:35.693Z,6236.00
2019-05-12T11:27:35.678Z,3064.00
2019-05-12T11:28:35.644Z,5852.00
2019-05-12T11:29:45.566Z,2904.00
2019-05-12T11:30:35.605Z,4200.00
2019-05-12T11:31:35.563Z,2716.00
2019-05-12T11:32:37.928Z,2740.00
2019-05-12T11:33:35.495Z,3684.00
2019-05-12T11:34:35.459Z,5568.00
2019-05-12T11:35:35.484Z,3792.00
2019-05-12T11:36:35.467Z,5808.00
2019-05-12T11:37:35.487Z,5860.00
2019-05-12T11:38:35.592Z,4184.00
2019-05-12T11:39:36.732Z,3724.00
2019-05-12T11:40:35.289Z,3144.00
2019-05-12T11:41:35.249Z,3168.00
2019-05-12T11:42:35.415Z,3200.00
2019-05-12T11:43:35.208Z,3252.00
2019-05-12T11:44:35.195Z,3104.00
2019-05-12T11:45:35.149Z,3096.00
2019-05-12T11:46:36.408Z,3236.00
2019-05-12T11:47:37.289Z,5000.00
2019-05-12T11:48:35.061Z,2840.00
2019-05-12T11:49:35.020Z,2888.00
2019-05-12T11:50:34.992Z,4408.00
2019-05-12T11:51:34.965Z,5876.00
2019-05-12T11:52:34.931Z,5920.00
2019-05-12T11:53:35.153Z,6120.00
2019-05-12T11:54:34.884Z,4072.00
2019-05-12T11:55:35.139Z,4252.00
2019-05-12T11:56:34.824Z,5212.00
2019-05-12T11:57:34.781Z,3796.00
2019-05-12T11:58:34.749Z,4628.00
2019-05-12T11:59:34.715Z,2972.00
2019-05-12T12:00:34.699Z,3016.00
2019-05-12T12:01:34.666Z,6108.00
2019-05-12T12:02:34.651Z,3964.00
2019-05-12T12:03:34.611Z,6232.00
2019-05-12T12:04:34.576Z,6248.00
2019-05-12T12:05:34.549Z,6292.00
2019-05-12T12:06:34.525Z,6156.00
2019-05-12T12:07:39.348Z,4692.00
2019-05-12T12:08:37.171Z,5560.00
2019-05-12T12:09:34.459Z,2616.00
2019-05-12T12:10:38.325Z,2576.00
2019-05-12T12:11:34.366Z,2532.00
2019-05-12T12:12:34.674Z,2440.00
2019-05-12T12:13:34.317Z,2500.00
2019-05-12T12:14:34.519Z,3896.00
2019-05-12T12:15:34.666Z,3312.00
2019-05-12T12:16:34.230Z,2972.00
2019-05-12T12:17:35.780Z,5896.00
2019-05-12T12:18:34.171Z,6940.00
2019-05-12T12:19:43.296Z,2964.00
2019-05-12T12:20:34.095Z,2900.00
2019-05-12T12:21:35.028Z,2772.00
2019-05-12T12:22:34.045Z,2760.00
2019-05-12T12:23:34.011Z,2760.00
2019-05-12T12:24:33.989Z,2752.00
2019-05-12T12:25:34.473Z,2636.00
2019-05-12T12:26:37.033Z,2500.00
2019-05-12T12:27:33.905Z,2364.00
2019-05-12T12:28:34.419Z,2300.00
2019-05-12T12:29:34.590Z,2368.00
2019-05-12T12:30:34.206Z,5692.00
2019-05-12T12:31:35.564Z,6556.00
2019-05-12T12:32:33.979Z,6536.00
2019-05-12T12:33:36.731Z,6572.00